Time;durP1;ratioP1;P1;durP2;ratioP2;P2;SDS_P1;SDS_P2;PMS_P1;PMS_P2;Temp;Humidity;BMP_temperature;BMP_pressure;BME280_temperature;BME280_humidity;BME280_pressure;Samples;Min_cycle;Max_cycle;Signal;HPM_P1;HPM_P2
2021/07/15 00:01:30;;;;;;;;;;;;;;;17.79;100.00;98520.63;5076515;28;19943;-66
2021/07/15 00:03:56;;;;;;;;;;;;;;;17.43;100.00;98532.63;5074583;28;20019;-65
2021/07/15 00:06:21;;;;;;;;;;;;;;;16.88;100.00;98547.53;5057356;28;19955;-67
2021/07/15 00:08:47;;;;;;;;;;;;;;;17.14;100.00;98544.97;5055730;28;19924;-66
2021/07/15 00:11:13;;;;;;;;;;;;;;;17.03;100.00;98543.06;5055703;28;19942;-67
2021/07/15 00:13:38;;;;;;;;;;;;;;;16.60;100.00;98545.81;5055451;28;19951;-67
2021/07/15 00:16:06;;;;;;;;;;;;;;;17.06;100.00;98532.47;5055712;28;19913;-67
2021/07/15 00:18:33;;;;;;;;;;;;;;;17.60;100.00;98515.00;5055776;28;19913;-66
2021/07/15 00:20:59;;;;;;;;;;;;;;;17.70;100.00;98514.28;5055175;28;19913;-66
2021/07/15 00:23:25;;;;;;;;;;;;;;;18.03;100.00;98512.06;5053426;28;19920;-66
2021/07/15 00:25:50;;;;;;;;;;;;;;;16.89;100.00;98524.94;5052208;28;20630;-66
2021/07/15 00:28:15;;;;;;;;;;;;;;;16.83;100.00;98514.94;5041080;28;20321;-66
2021/07/15 00:30:41;;;;;;;;;;;;;;;16.98;100.00;98513.09;5032336;28;19913;-66
2021/07/15 00:33:06;;;;;;;;;;;;;;;18.01;100.00;98504.34;5043902;28;20381;-67
2021/07/15 00:35:32;;;;;;;;;;;;;;;18.41;100.00;98500.69;5052103;28;19912;-67
2021/07/15 00:37:58;;;;;;;;;;;;;;;18.12;100.00;98512.25;5053112;28;20369;-68
2021/07/15 00:40:23;;;;;;;;;;;;;;;18.10;100.00;98513.28;5064643;28;19912;-67
2021/07/15 00:42:49;;;;;;;;;;;;;;;17.88;100.00;98526.97;5072679;28;20436;-66
2021/07/15 00:45:15;;;;;;;;;;;;;;;18.02;100.00;98526.03;5072894;28;19912;-66
2021/07/15 00:47:41;;;;;;;;;;;;;;;18.50;100.00;98513.06;5072846;28;20543;-67
2021/07/15 00:50:07;;;;;;;;;;;;;;;18.54;100.00;98517.09;5072873;28;19912;-67
2021/07/15 00:52:33;;;;;;;;;;;;;;;18.44;100.00;98516.94;5072353;28;19912;-67
2021/07/15 00:54:58;;;;;;;;;;;;;;;18.39;100.00;98516.44;5071742;28;19912;-66
2021/07/15 00:57:24;;;;;;;;;;;;;;;18.07;100.00;98518.72;5073025;28;20453;-66
2021/07/15 00:59:51;;;;;;;;;;;;;;;17.98;100.00;98523.63;5071163;28;20409;-67
2021/07/15 01:02:16;;;;;;;;;;;;;;;17.52;100.00;98524.19;5050239;28;19986;-67
2021/07/15 01:04:42;;;;;;;;;;;;;;;17.56;100.00;98538.66;5055810;28;20312;-66
2021/07/15 01:07:07;;;;;;;;;;;;;;;17.60;100.00;98538.44;5064085;28;19919;-67
2021/07/15 01:09:33;;;;;;;;;;;;;;;17.61;100.00;98537.50;5054374;28;19942;-67
2021/07/15 01:12:01;;;;;;;;;;;;;;;17.76;100.00;98541.66;5052278;28;19913;-65
2021/07/15 01:14:28;;;;;;;;;;;;;;;18.04;100.00;98542.38;5052586;28;19927;-67
2021/07/15 01:17:13;;;;;;;;;;;;;;;18.36;100.00;98535.75;5051612;28;19927;-67
2021/07/15 01:19:54;;;;;;;;;;;;;;;17.52;100.00;98539.81;5051978;28;19917;-67
2021/07/15 01:22:31;;;;;;;;;;;;;;;18.19;100.00;98543.91;5034877;28;19928;-67
2021/07/15 01:25:03;;;;;;;;;;;;;;;18.36;100.00;98534.91;5051186;28;19913;-66
2021/07/15 01:27:31;;;;;;;;;;;;;;;18.21;100.00;98523.78;5051766;28;19923;-67
2021/07/15 01:30:07;;;;;;;;;;;;;;;17.48;100.00;98535.75;5060828;28;19923;-66
2021/07/15 01:32:48;;;;;;;;;;;;;;;17.28;100.00;98531.03;5071955;28;19920;-67
2021/07/15 01:35:13;;;;;;;;;;;;;;;16.72;100.00;98537.25;5071637;28;19964;-67
2021/07/15 01:37:39;;;;;;;;;;;;;;;16.71;100.00;98538.16;5070548;28;19916;-67
2021/07/15 01:40:05;;;;;;;;;;;;;;;16.87;100.00;98526.81;5070727;28;19919;-67
2021/07/15 01:42:30;;;;;;;;;;;;;;;16.71;100.00;98522.56;5057395;28;20122;-66
2021/07/15 01:44:55;;;;;;;;;;;;;;;16.48;100.00;98512.81;5051934;28;19912;-67
2021/07/15 01:47:20;;;;;;;;;;;;;;;16.69;100.00;98519.25;5051368;28;19916;-66
2021/07/15 01:49:46;;;;;;;;;;;;;;;17.28;100.00;98505.03;5051960;28;19917;-66
2021/07/15 01:52:12;;;;;;;;;;;;;;;17.87;100.00;98481.03;5050741;28;19962;-67
2021/07/15 01:54:37;;;;;;;;;;;;;;;18.03;100.00;98470.38;5051641;28;19919;-66
2021/07/15 01:57:03;;;;;;;;;;;;;;;18.11;100.00;98468.03;5051379;28;20405;-66
2021/07/15 01:59:30;;;;;;;;;;;;;;;18.17;100.00;98462.41;5057273;28;19996;-67
2021/07/15 02:01:55;;;;;;;;;;;;;;;18.10;100.00;98458.56;5066304;28;20409;-67
2021/07/15 02:04:21;;;;;;;;;;;;;;;17.77;100.00;98462.59;5061366;28;19924;-67
2021/07/15 02:06:50;;;;;;;;;;;;;;;17.75;100.00;98469.69;5051790;28;19913;-67
2021/07/15 02:09:15;;;;;;;;;;;;;;;18.08;100.00;98478.69;5050844;28;20370;-67
2021/07/15 02:11:43;;;;;;;;;;;;;;;18.15;100.00;98485.13;5051040;28;19924;-66
2021/07/15 02:14:12;;;;;;;;;;;;;;;18.33;100.00;98490.78;5014773;28;19992;-67
2021/07/15 02:16:48;;;;;;;;;;;;;;;18.03;100.00;98504.25;5030607;28;19920;-67
2021/07/15 02:19:13;;;;;;;;;;;;;;;17.81;100.00;98507.47;5031730;28;19913;-67
2021/07/15 02:21:39;;;;;;;;;;;;;;;17.85;100.00;98512.41;5043359;28;19923;-66
2021/07/15 02:24:05;;;;;;;;;;;;;;;17.44;100.00;98515.22;5069052;28;19919;-66
2021/07/15 02:26:30;;;;;;;;;;;;;;;17.02;100.00;98525.81;5071231;28;20362;-65
2021/07/15 02:28:56;;;;;;;;;;;;;;;16.80;100.00;98541.16;5062149;28;19983;-67
2021/07/15 02:31:24;;;;;;;;;;;;;;;17.22;100.00;98528.84;5051367;28;19912;-66
2021/07/15 02:33:53;;;;;;;;;;;;;;;16.69;100.00;98534.88;5049317;28;19917;-66
2021/07/15 02:36:18;;;;;;;;;;;;;;;16.99;100.00;98536.44;5049696;28;19976;-68
2021/07/15 02:38:44;;;;;;;;;;;;;;;17.40;100.00;98534.59;5053176;28;20573;-67
2021/07/15 02:41:09;;;;;;;;;;;;;;;17.61;100.00;98534.88;5061469;28;19999;-67
2021/07/15 02:43:34;;;;;;;;;;;;;;;17.80;100.00;98537.91;5071068;28;19912;-66
2021/07/15 02:46:00;;;;;;;;;;;;;;;17.83;100.00;98537.72;5069583;28;19923;-67
2021/07/15 02:48:25;;;;;;;;;;;;;;;17.48;100.00;98542.72;5062117;28;20004;-67
2021/07/15 02:50:51;;;;;;;;;;;;;;;17.73;100.00;98541.88;5050874;28;19913;-67
2021/07/15 02:53:18;;;;;;;;;;;;;;;17.98;100.00;98526.25;5050362;28;19959;-67
2021/07/15 02:55:46;;;;;;;;;;;;;;;17.95;100.00;98542.09;5034036;28;19936;-67
2021/07/15 02:58:15;;;;;;;;;;;;;;;17.32;100.00;98558.53;5037076;28;19921;-67
2021/07/15 03:00:42;;;;;;;;;;;;;;;17.28;100.00;98552.69;5049451;28;20460;-67
2021/07/15 03:03:20;;;;;;;;;;;;;;;17.67;100.00;98532.69;5049971;28;20015;-67
2021/07/15 03:05:56;;;;;;;;;;;;;;;17.49;100.00;98524.41;5069630;28;19912;-68
2021/07/15 03:08:24;;;;;;;;;;;;;;;17.59;100.00;98528.97;5069271;28;19916;-67
2021/07/15 03:10:51;;;;;;;;;;;;;;;17.92;100.00;98529.28;5068171;28;19946;-68
2021/07/15 03:13:16;;;;;;;;;;;;;;;17.56;100.00;98538.66;5068965;28;19940;-67
2021/07/15 03:15:41;;;;;;;;;;;;;;;18.03;100.00;98538.13;5063413;28;20293;-67
2021/07/15 03:18:07;;;;;;;;;;;;;;;18.12;100.00;98547.91;5049511;28;20058;-67
2021/07/15 03:20:34;;;;;;;;;;;;;;;17.34;100.00;98556.66;5060878;28;20333;-68
2021/07/15 03:23:00;;;;;;;;;;;;;;;17.05;100.00;98571.59;5061988;28;19936;-67
2021/07/15 03:25:25;;;;;;;;;;;;;;;16.77;100.00;98568.16;5055644;28;19920;-67
2021/07/15 03:27:51;;;;;;;;;;;;;;;17.07;100.00;98569.72;5047578;28;19986;-66
2021/07/15 03:30:17;;;;;;;;;;;;;;;17.24;100.00;98566.00;5046744;28;19913;-65
2021/07/15 03:32:43;;;;;;;;;;;;;;;17.11;100.00;98561.63;5046444;28;19963;-67
2021/07/15 03:35:09;;;;;;;;;;;;;;;17.41;100.00;98557.91;5046803;28;19995;-67
2021/07/15 03:37:35;;;;;;;;;;;;;;;17.88;100.00;98556.50;5030538;28;20337;-66
2021/07/15 03:40:00;;;;;;;;;;;;;;;17.95;100.00;98556.91;5049710;28;19971;-67
2021/07/15 03:42:26;;;;;;;;;;;;;;;17.61;100.00;98563.53;5049203;28;20298;-67
2021/07/15 03:44:52;;;;;;;;;;;;;;;17.60;100.00;98577.50;5064888;28;19934;-67
2021/07/15 03:47:17;;;;;;;;;;;;;;;17.88;100.00;98569.53;5070874;28;19912;-67
2021/07/15 03:49:43;;;;;;;;;;;;;;;17.88;100.00;98572.13;5070648;28;19924;-68
2021/07/15 03:52:10;;;;;;;;;;;;;;;17.83;100.00;98576.78;5060056;28;19916;-66
2021/07/15 03:54:36;;;;;;;;;;;;;;;17.65;100.00;98576.28;5050499;28;19916;-68
2021/07/15 03:57:02;;;;;;;;;;;;;;;17.70;100.00;98588.97;5050837;28;19913;-67
2021/07/15 03:59:27;;;;;;;;;;;;;;;18.03;100.00;98588.47;5053298;28;20275;-67
2021/07/15 04:01:57;;;;;;;;;;;;;;;17.87;100.00;98580.84;5053330;28;19913;-67
2021/07/15 04:04:24;;;;;;;;;;;;;;;18.21;100.00;98573.31;5035374;28;20000;-67
2021/07/15 04:06:49;;;;;;;;;;;;;;;18.38;100.00;98572.13;5034329;28;19920;-68
2021/07/15 04:09:15;;;;;;;;;;;;;;;18.44;100.00;98563.88;5033031;28;19917;-68
2021/07/15 04:11:42;;;;;;;;;;;;;;;18.15;100.00;98560.69;5033074;28;20027;-67
2021/07/15 04:14:10;;;;;;;;;;;;;;;18.19;100.00;98565.59;5032943;28;20004;-67
2021/07/15 04:16:47;;;;;;;;;;;;;;;18.41;100.00;98556.28;5049510;28;20004;-67
2021/07/15 04:19:13;;;;;;;;;;;;;;;18.42;100.00;98564.91;5034232;28;19913;-67
2021/07/15 04:21:38;;;;;;;;;;;;;;;18.72;100.00;98567.09;5034269;28;20519;-67
2021/07/15 04:24:04;;;;;;;;;;;;;;;18.73;100.00;98564.38;5049231;28;19913;-67
2021/07/15 04:26:29;;;;;;;;;;;;;;;18.78;100.00;98566.69;5049580;28;20023;-66
2021/07/15 04:28:54;;;;;;;;;;;;;;;18.61;100.00;98565.28;5055878;28;19920;-67
2021/07/15 04:31:23;;;;;;;;;;;;;;;18.72;100.00;98573.13;5072615;28;19917;-68
2021/07/15 04:33:49;;;;;;;;;;;;;;;18.81;100.00;98566.44;5060605;28;19920;-67
2021/07/15 04:36:14;;;;;;;;;;;;;;;18.67;100.00;98574.41;5052919;28;19912;-67
2021/07/15 04:38:41;;;;;;;;;;;;;;;18.37;100.00;98576.50;5052499;28;19919;-67
2021/07/15 04:41:07;;;;;;;;;;;;;;;18.87;100.00;98580.84;5052333;28;20000;-67
2021/07/15 04:43:32;;;;;;;;;;;;;;;18.93;100.00;98575.16;5052211;28;20047;-67
2021/07/15 04:45:57;;;;;;;;;;;;;;;18.48;100.00;98580.13;5052461;28;19917;-67
2021/07/15 04:48:23;;;;;;;;;;;;;;;18.43;100.00;98579.59;5053442;28;20015;-66
2021/07/15 04:50:48;;;;;;;;;;;;;;;18.12;100.00;98590.41;5053477;28;19948;-67
2021/07/15 04:53:14;;;;;;;;;;;;;;;19.09;100.00;98586.16;5052056;28;19944;-67
2021/07/15 04:55:40;;;;;;;;;;;;;;;19.20;100.00;98587.97;5051780;28;19967;-66
2021/07/15 04:58:05;;;;;;;;;;;;;;;19.39;100.00;98595.28;5052308;28;19951;-67
2021/07/15 05:00:31;;;;;;;;;;;;;;;19.49;100.00;98588.41;5053381;28;19917;-67
2021/07/15 05:03:00;;;;;;;;;;;;;;;19.39;100.00;98577.81;5053100;28;19944;-67
2021/07/15 05:05:25;;;;;;;;;;;;;;;19.52;100.00;98590.75;5053086;28;19913;-67
2021/07/15 05:07:50;;;;;;;;;;;;;;;19.31;100.00;98597.59;5052823;28;19962;-67
2021/07/15 05:10:16;;;;;;;;;;;;;;;19.38;100.00;98601.41;5053300;28;20444;-68
2021/07/15 05:12:41;;;;;;;;;;;;;;;19.19;100.00;98605.41;5053143;28;19913;-68
2021/07/15 05:15:10;;;;;;;;;;;;;;;18.95;100.00;98596.75;5053102;28;19920;-67
2021/07/15 05:17:36;;;;;;;;;;;;;;;18.81;100.00;98613.41;5061130;28;19913;-68
2021/07/15 05:20:03;;;;;;;;;;;;;;;18.46;100.00;98608.09;5071844;28;19913;-68
2021/07/15 05:22:28;;;;;;;;;;;;;;;18.38;100.00;98609.47;5072945;28;19913;-68
2021/07/15 05:24:54;;;;;;;;;;;;;;;18.60;100.00;98615.75;5071503;28;19913;-68
2021/07/15 05:27:19;;;;;;;;;;;;;;;18.53;100.00;98619.75;5072690;28;19912;-67
2021/07/15 05:29:44;;;;;;;;;;;;;;;18.73;100.00;98615.72;5072715;28;19916;-68
2021/07/15 05:32:10;;;;;;;;;;;;;;;18.20;100.00;98623.78;5072931;28;20051;-67
2021/07/15 05:34:35;;;;;;;;;;;;;;;18.23;100.00;98627.94;5068860;28;19955;-67
2021/07/15 05:37:01;;;;;;;;;;;;;;;18.17;100.00;98631.81;5051535;28;19921;-68
2021/07/15 05:39:27;;;;;;;;;;;;;;;18.30;100.00;98624.81;5052635;28;19948;-67
2021/07/15 05:41:52;;;;;;;;;;;;;;;18.57;100.00;98621.19;5051342;28;19917;-67
2021/07/15 05:44:17;;;;;;;;;;;;;;;19.39;100.00;98608.31;5052475;28;19909;-67
2021/07/15 05:46:43;;;;;;;;;;;;;;;19.44;100.00;98614.84;5052407;28;20294;-66
2021/07/15 05:49:08;;;;;;;;;;;;;;;19.52;100.00;98613.44;5052307;28;19997;-67
2021/07/15 05:51:34;;;;;;;;;;;;;;;19.34;100.00;98616.50;5052341;28;19920;-67
2021/07/15 05:53:59;;;;;;;;;;;;;;;18.89;100.00;98621.53;5052267;28;19917;-67
2021/07/15 05:56:24;;;;;;;;;;;;;;;19.38;100.00;98622.31;5051138;28;19991;-66
2021/07/15 05:58:50;;;;;;;;;;;;;;;19.33;100.00;98614.00;5050979;28;20024;-66
2021/07/15 06:01:15;;;;;;;;;;;;;;;19.57;100.00;98627.84;5052290;28;19920;-66
2021/07/15 06:03:40;;;;;;;;;;;;;;;19.67;100.00;98621.94;5051960;28;19924;-66
2021/07/15 06:06:06;;;;;;;;;;;;;;;19.33;100.00;98633.09;5061274;28;20361;-66
2021/07/15 06:08:31;;;;;;;;;;;;;;;19.26;100.00;98634.50;5072104;28;19924;-66
2021/07/15 06:10:57;;;;;;;;;;;;;;;19.37;100.00;98625.88;5072009;28;19918;-66
2021/07/15 06:13:22;;;;;;;;;;;;;;;19.64;100.00;98633.44;5072122;28;19955;-67
2021/07/15 06:15:47;;;;;;;;;;;;;;;20.01;100.00;98634.09;5071907;28;19943;-66
2021/07/15 06:18:13;;;;;;;;;;;;;;;19.60;100.00;98629.38;5072001;28;19919;-67
2021/07/15 06:20:38;;;;;;;;;;;;;;;19.86;100.00;98632.66;5071167;28;19916;-67
2021/07/15 06:23:05;;;;;;;;;;;;;;;19.84;100.00;98635.41;5071787;28;19912;-67
2021/07/15 06:25:30;;;;;;;;;;;;;;;20.04;100.00;98641.72;5071768;28;19919;-66
2021/07/15 06:27:55;;;;;;;;;;;;;;;20.38;100.00;98643.50;5070389;28;19913;-67
2021/07/15 06:30:21;;;;;;;;;;;;;;;20.75;100.00;98644.06;5070486;28;19915;-67
2021/07/15 06:32:46;;;;;;;;;;;;;;;20.68;100.00;98648.13;5070303;28;19955;-66
2021/07/15 06:35:12;;;;;;;;;;;;;;;20.85;100.00;98647.63;5052535;28;19940;-66
2021/07/15 06:37:40;;;;;;;;;;;;;;;20.97;100.00;98650.22;5050267;28;19920;-66
2021/07/15 06:40:06;;;;;;;;;;;;;;;20.87;100.00;98661.44;5050174;28;19917;-67
2021/07/15 06:42:32;;;;;;;;;;;;;;;21.14;100.00;98656.69;5051703;28;20347;-66
2021/07/15 06:44:57;;;;;;;;;;;;;;;21.69;100.00;98663.50;5050177;28;19952;-66
2021/07/15 06:47:23;;;;;;;;;;;;;;;21.65;100.00;98669.97;5050201;28;19948;-67
2021/07/15 06:49:48;;;;;;;;;;;;;;;21.51;100.00;98665.88;5049838;28;19927;-67
2021/07/15 06:52:13;;;;;;;;;;;;;;;21.60;100.00;98676.53;5049915;28;19916;-67
2021/07/15 06:54:39;;;;;;;;;;;;;;;21.15;100.00;98672.28;5049643;28;19920;-67
2021/07/15 06:57:04;;;;;;;;;;;;;;;21.46;100.00;98667.19;5049905;28;20015;-66
2021/07/15 06:59:30;;;;;;;;;;;;;;;22.20;100.00;98664.47;5051200;28;20328;-66
2021/07/15 07:01:56;;;;;;;;;;;;;;;22.69;100.00;98664.66;5050991;28;19913;-67
2021/07/15 07:04:21;;;;;;;;;;;;;;;22.96;100.00;98659.63;5051299;28;19955;-66
2021/07/15 07:06:46;;;;;;;;;;;;;;;23.38;100.00;98655.97;5050021;28;19913;-67
2021/07/15 07:09:12;;;;;;;;;;;;;;;23.22;100.00;98659.13;5051247;28;19982;-67
2021/07/15 07:11:37;;;;;;;;;;;;;;;23.15;100.00;98663.28;5051152;28;19919;-67
2021/07/15 07:14:02;;;;;;;;;;;;;;;22.97;100.00;98656.03;5051028;28;19971;-66
2021/07/15 07:16:28;;;;;;;;;;;;;;;23.61;100.00;98659.13;5049805;28;19917;-66
2021/07/15 07:18:53;;;;;;;;;;;;;;;22.93;100.00;98659.91;5050111;28;19913;-66
2021/07/15 07:21:18;;;;;;;;;;;;;;;23.25;100.00;98669.34;5049905;28;20046;-66
2021/07/15 07:23:44;;;;;;;;;;;;;;;23.45;100.00;98669.38;5047627;28;19913;-67
2021/07/15 07:26:09;;;;;;;;;;;;;;;23.72;100.00;98677.38;5050977;28;19913;-67
2021/07/15 07:28:35;;;;;;;;;;;;;;;23.89;99.43;98673.19;5050939;28;19917;-67
2021/07/15 07:31:00;;;;;;;;;;;;;;;22.03;100.00;98681.66;5051930;28;20011;-67
2021/07/15 07:33:25;;;;;;;;;;;;;;;23.57;100.00;98676.13;5053717;28;19995;-67
2021/07/15 07:35:51;;;;;;;;;;;;;;;23.61;100.00;98671.44;5055008;28;19968;-67
2021/07/15 07:38:16;;;;;;;;;;;;;;;23.76;100.00;98678.75;5053689;28;19923;-67
2021/07/15 07:40:41;;;;;;;;;;;;;;;24.32;100.00;98678.91;5054976;28;19913;-66
2021/07/15 07:43:07;;;;;;;;;;;;;;;24.19;100.00;98687.94;5054958;28;20565;-67
2021/07/15 07:45:32;;;;;;;;;;;;;;;23.12;100.00;98685.38;5053571;28;20444;-67
2021/07/15 07:48:00;;;;;;;;;;;;;;;23.61;100.00;98679.31;5054711;28;19919;-66
2021/07/15 07:50:25;;;;;;;;;;;;;;;22.52;100.00;98682.72;5053745;28;20425;-66
2021/07/15 07:52:51;;;;;;;;;;;;;;;21.58;100.00;98689.78;5053274;28;19917;-66
2021/07/15 07:55:16;;;;;;;;;;;;;;;21.54;100.00;98687.53;5053452;28;20396;-66
2021/07/15 07:57:42;;;;;;;;;;;;;;;20.83;100.00;98696.66;5054594;28;19954;-67
2021/07/15 08:00:08;;;;;;;;;;;;;;;21.52;100.00;98693.72;5053229;28;20389;-67
2021/07/15 08:02:34;;;;;;;;;;;;;;;21.26;100.00;98698.44;5053186;28;19913;-67
2021/07/15 08:04:59;;;;;;;;;;;;;;;21.20;100.00;98704.16;5054207;28;19924;-67
2021/07/15 08:07:24;;;;;;;;;;;;;;;21.05;100.00;98702.78;5053017;28;19912;-67
2021/07/15 08:09:50;;;;;;;;;;;;;;;20.79;100.00;98704.84;5054211;28;19928;-67
2021/07/15 08:12:16;;;;;;;;;;;;;;;21.00;100.00;98699.69;5054230;28;19913;-67
2021/07/15 08:14:42;;;;;;;;;;;;;;;20.98;100.00;98694.59;5053154;28;19962;-67
2021/07/15 08:17:08;;;;;;;;;;;;;;;21.17;100.00;98700.97;5054128;28;19917;-67
2021/07/15 08:19:34;;;;;;;;;;;;;;;21.40;100.00;98699.13;5052823;28;19913;-67
2021/07/15 08:21:59;;;;;;;;;;;;;;;21.12;100.00;98700.50;5069616;28;19938;-66
2021/07/15 08:24:24;;;;;;;;;;;;;;;21.19;100.00;98692.03;5073343;28;19919;-67
2021/07/15 08:26:50;;;;;;;;;;;;;;;21.00;100.00;98691.84;5072018;28;19916;-67
2021/07/15 08:29:16;;;;;;;;;;;;;;;21.39;100.00;98697.44;5072214;28;19917;-67
2021/07/15 08:31:42;;;;;;;;;;;;;;;21.86;100.00;98703.22;5072148;28;19913;-67
2021/07/15 08:34:08;;;;;;;;;;;;;;;21.57;100.00;98711.69;5072055;28;20367;-66
2021/07/15 08:36:33;;;;;;;;;;;;;;;21.86;100.00;98719.75;5054011;28;20022;-67
2021/07/15 08:38:59;;;;;;;;;;;;;;;22.37;100.00;98715.53;5072505;28;19916;-67
2021/07/15 08:41:27;;;;;;;;;;;;;;;22.49;100.00;98714.50;5072621;28;20289;-66
2021/07/15 08:43:53;;;;;;;;;;;;;;;21.14;100.00;98737.88;5072924;28;19912;-66
2021/07/15 08:46:18;;;;;;;;;;;;;;;21.18;100.00;98734.88;5073701;28;19919;-67
2021/07/15 08:48:44;;;;;;;;;;;;;;;21.44;100.00;98739.84;5071783;28;19916;-66
2021/07/15 08:51:10;;;;;;;;;;;;;;;21.51;100.00;98739.22;5072397;28;19920;-67
2021/07/15 08:53:36;;;;;;;;;;;;;;;21.67;100.00;98733.56;5073301;28;19919;-66
2021/07/15 08:58:45;;;;;;;;;;;;;;;21.69;100.00;98736.91;5073457;28;20328;-67
2021/07/15 09:01:11;;;;;;;;;;;;;;;22.22;100.00;98737.84;5072139;28;19916;-67
2021/07/15 09:03:36;;;;;;;;;;;;;;;22.84;100.00;98734.22;5071691;28;19920;-67
2021/07/15 09:06:02;;;;;;;;;;;;;;;22.85;100.00;98729.81;5073080;28;19920;-67
2021/07/15 09:08:31;;;;;;;;;;;;;;;22.32;100.00;98736.09;5073381;28;19916;-67
2021/07/15 09:10:57;;;;;;;;;;;;;;;22.44;100.00;98739.44;5073080;28;19913;-67
2021/07/15 09:13:22;;;;;;;;;;;;;;;23.68;100.00;98730.38;5073211;28;19919;-67
2021/07/15 09:15:48;;;;;;;;;;;;;;;23.28;100.00;98726.88;5073143;28;19934;-68
2021/07/15 09:18:13;;;;;;;;;;;;;;;23.73;100.00;98728.97;5072778;28;19923;-67
2021/07/15 09:20:39;;;;;;;;;;;;;;;23.40;100.00;98735.50;5073067;28;19919;-67
2021/07/15 09:23:06;;;;;;;;;;;;;;;22.00;100.00;98744.00;5072068;28;19917;-67
2021/07/15 09:25:37;;;;;;;;;;;;;;;23.09;100.00;98738.19;5072463;28;19916;-68
2021/07/15 09:28:06;;;;;;;;;;;;;;;22.85;100.00;98740.31;5072094;28;20381;-67
2021/07/15 09:30:32;;;;;;;;;;;;;;;24.09;100.00;98745.03;5072427;28;20285;-68
2021/07/15 09:32:58;;;;;;;;;;;;;;;23.75;100.00;98753.34;5070971;28;19913;-68
2021/07/15 09:35:24;;;;;;;;;;;;;;;23.87;100.00;98755.84;5069147;28;19917;-67
2021/07/15 09:37:50;;;;;;;;;;;;;;;24.23;100.00;98751.63;5071954;28;20370;-67
2021/07/15 09:40:15;;;;;;;;;;;;;;;24.15;99.43;98752.34;5053964;28;19912;-67
2021/07/15 09:42:40;;;;;;;;;;;;;;;23.78;100.00;98753.06;5069289;28;19921;-70
2021/07/15 09:45:09;;;;;;;;;;;;;;;24.72;100.00;98759.41;5061096;28;19932;-70
2021/07/15 09:47:39;;;;;;;;;;;;;;;24.69;100.00;98749.16;5059939;28;19927;-68
2021/07/15 09:50:26;;;;;;;;;;;;;;;24.98;99.49;98760.38;5060931;28;19931;-69
2021/07/15 09:52:52;;;;;;;;;;;;;;;24.77;97.29;98757.16;5061648;28;19955;-70
2021/07/15 09:55:24;;;;;;;;;;;;;;;24.74;100.00;98763.53;5059644;28;21228;-70
2021/07/15 09:58:02;;;;;;;;;;;;;;;24.09;95.38;98768.69;5042061;28;20425;-70
2021/07/15 10:00:32;;;;;;;;;;;;;;;25.41;92.97;98766.81;5059406;28;19925;-70
2021/07/15 10:02:57;;;;;;;;;;;;;;;24.68;95.09;98758.88;5061188;28;20541;-70
2021/07/15 10:05:23;;;;;;;;;;;;;;;22.31;100.00;98766.75;5042624;28;19919;-70
2021/07/15 10:07:48;;;;;;;;;;;;;;;24.56;100.00;98760.00;5060172;28;19916;-70
2021/07/15 10:10:14;;;;;;;;;;;;;;;24.18;100.00;98762.59;5058996;28;19923;-70
2021/07/15 10:12:40;;;;;;;;;;;;;;;23.63;100.00;98762.34;5059373;28;20597;-69
2021/07/15 10:15:09;;;;;;;;;;;;;;;24.28;100.00;98764.38;5058634;28;19916;-69
2021/07/15 10:17:44;;;;;;;;;;;;;;;24.05;100.00;98766.50;5057999;28;19916;-69
2021/07/15 10:20:10;;;;;;;;;;;;;;;23.14;100.00;98769.31;5065908;28;20415;-65
2021/07/15 10:22:35;;;;;;;;;;;;;;;23.70;100.00;98767.88;5070976;28;19912;-66
2021/07/15 10:25:01;;;;;;;;;;;;;;;23.43;100.00;98776.44;5071239;28;19947;-67
2021/07/15 10:27:27;;;;;;;;;;;;;;;23.43;100.00;98771.19;5070989;28;19920;-67
2021/07/15 10:29:53;;;;;;;;;;;;;;;23.09;100.00;98779.41;5070046;28;19917;-66
2021/07/15 10:32:19;;;;;;;;;;;;;;;23.59;100.00;98767.03;5070028;28;19927;-66
2021/07/15 10:34:48;;;;;;;;;;;;;;;24.90;97.02;98768.19;5068119;28;19912;-65
2021/07/15 10:37:14;;;;;;;;;;;;;;;23.97;100.00;98775.06;5069858;28;19913;-66
2021/07/15 10:39:39;;;;;;;;;;;;;;;25.19;97.76;98772.50;5070999;28;20282;-66
2021/07/15 10:42:05;;;;;;;;;;;;;;;23.82;99.66;98781.75;5069782;28;19955;-65
2021/07/15 10:44:30;;;;;;;;;;;;;;;23.89;100.00;98782.84;5069934;28;19962;-65
2021/07/15 10:46:59;;;;;;;;;;;;;;;24.67;100.00;98780.06;5070866;28;19912;-65
2021/07/15 10:49:24;;;;;;;;;;;;;;;24.30;100.00;98786.94;5060140;28;20270;-67
2021/07/15 10:51:51;;;;;;;;;;;;;;;24.38;100.00;98789.72;5062222;28;19924;-66
2021/07/15 10:54:16;;;;;;;;;;;;;;;23.46;100.00;98789.28;5058805;28;20400;-67
2021/07/15 10:56:46;;;;;;;;;;;;;;;23.19;100.00;98790.75;5060508;28;19920;-67
2021/07/15 10:59:21;;;;;;;;;;;;;;;22.68;100.00;98796.91;5057605;28;19974;-69
2021/07/15 11:01:46;;;;;;;;;;;;;;;24.21;100.00;98791.25;5062209;28;20018;-68
2021/07/15 11:04:13;;;;;;;;;;;;;;;22.77;100.00;98793.50;5060086;28;20047;-68
2021/07/15 11:07:01;;;;;;;;;;;;;;;25.19;96.54;98783.06;5043666;28;19926;-69
2021/07/15 11:09:27;;;;;;;;;;;;;;;26.72;92.04;98782.03;5067065;28;19922;-68
2021/07/15 11:11:52;;;;;;;;;;;;;;;26.98;91.05;98784.63;5070492;28;19995;-67
2021/07/15 11:14:46;;;;;;;;;;;;;;;26.33;95.59;98780.63;5069210;28;19912;-68
2021/07/15 11:17:20;;;;;;;;;;;;;;;25.16;96.91;98794.69;5061827;28;20003;-68
2021/07/15 11:19:47;;;;;;;;;;;;;;;24.59;98.47;98792.16;5058193;28;19952;-68
2021/07/15 11:22:33;;;;;;;;;;;;;;;24.76;94.70;98792.38;5059037;28;19987;-68
2021/07/15 11:25:04;;;;;;;;;;;;;;;25.09;97.33;98792.78;5059037;28;20987;-68
2021/07/15 11:27:32;;;;;;;;;;;;;;;26.05;89.54;98795.78;5062110;28;19917;-68
2021/07/15 11:29:57;;;;;;;;;;;;;;;26.04;82.52;98797.56;5059690;28;19921;-70
2021/07/15 11:32:27;;;;;;;;;;;;;;;26.70;77.63;98796.22;5061636;28;20903;-70
2021/07/15 11:34:54;;;;;;;;;;;;;;;24.69;90.00;98799.19;5061079;28;19921;-70
2021/07/15 11:37:25;;;;;;;;;;;;;;;27.23;89.36;98793.50;5062875;28;19951;-70
2021/07/15 11:39:50;;;;;;;;;;;;;;;26.53;88.44;98804.19;5060560;28;19931;-70
2021/07/15 11:42:22;;;;;;;;;;;;;;;27.18;76.56;98806.34;5062980;28;19920;-70
2021/07/15 11:45:01;;;;;;;;;;;;;;;27.88;75.26;98803.41;5062101;28;19917;-70
2021/07/15 11:47:55;;;;;;;;;;;;;;;26.75;73.16;98808.13;5060390;28;19917;-70
2021/07/15 11:50:30;;;;;;;;;;;;;;;28.13;73.93;98804.22;5061579;28;19932;-70
2021/07/15 11:53:13;;;;;;;;;;;;;;;28.09;75.32;98792.31;5062725;28;19965;-68
2021/07/15 11:55:39;;;;;;;;;;;;;;;26.68;83.41;98797.38;5061466;28;19916;-68
2021/07/15 11:58:04;;;;;;;;;;;;;;;27.96;82.27;98792.81;5063629;28;20431;-68
2021/07/15 12:00:30;;;;;;;;;;;;;;;27.16;83.62;98793.28;5060868;28;19962;-69
2021/07/15 12:02:56;;;;;;;;;;;;;;;26.16;88.48;98797.31;5062560;28;19928;-69
2021/07/15 12:05:28;;;;;;;;;;;;;;;27.29;72.99;98791.03;5062377;28;19951;-68
2021/07/15 12:08:06;;;;;;;;;;;;;;;25.61;83.67;98806.22;5061737;28;19919;-68
2021/07/15 12:10:35;;;;;;;;;;;;;;;26.00;82.73;98804.16;5061904;28;19916;-68
2021/07/15 12:13:01;;;;;;;;;;;;;;;26.07;79.42;98814.94;5070174;28;19997;-66
2021/07/15 12:15:27;;;;;;;;;;;;;;;25.69;84.91;98816.88;5070676;28;20443;-66
2021/07/15 12:17:53;;;;;;;;;;;;;;;27.30;76.10;98815.66;5065764;28;19912;-68
2021/07/15 12:20:19;;;;;;;;;;;;;;;27.79;75.84;98813.13;5064871;28;20426;-68
2021/07/15 12:22:49;;;;;;;;;;;;;;;27.25;67.34;98823.25;5070128;28;19912;-67
2021/07/15 12:25:19;;;;;;;;;;;;;;;28.19;75.41;98811.53;5073137;28;20293;-67
2021/07/15 12:27:48;;;;;;;;;;;;;;;27.23;70.29;98817.28;5072920;28;19961;-67
2021/07/15 12:30:14;;;;;;;;;;;;;;;28.17;75.09;98810.84;5072886;28;19916;-68
2021/07/15 12:33:00;;;;;;;;;;;;;;;27.33;73.99;98808.25;5072392;28;20031;-70
2021/07/15 12:35:29;;;;;;;;;;;;;;;27.89;71.09;98805.03;5066915;28;19933;-67
2021/07/15 12:37:55;;;;;;;;;;;;;;;27.97;65.71;98815.66;5064519;28;20019;-70
2021/07/15 12:40:27;;;;;;;;;;;;;;;28.58;56.45;98824.06;5066709;28;20015;-70